Time;durP1;ratioP1;P1;durP2;ratioP2;P2;SDS_P1;SDS_P2;PMS_P1;PMS_P2;Temp;Humidity;BMP_temperature;BMP_pressure;BME280_temperature;BME280_humidity;BME280_pressure;Samples;Min_cycle;Max_cycle;Signal;HPM_P1;HPM_P2
2021/12/23 00:00:08;;;;;;;33.15;15.15;;;0.70;84.80;;;;;;5056957;28;20074;-79
2021/12/23 00:02:33;;;;;;;21.95;11.48;;;0.70;84.90;;;;;;5074136;28;20028;-79
2021/12/23 00:04:59;;;;;;;32.65;13.10;;;0.70;84.90;;;;;;5076586;28;20028;-78
2021/12/23 00:07:25;;;;;;;31.17;14.30;;;0.70;85.00;;;;;;5075318;28;20588;-79
2021/12/23 00:12:19;;;;;;;25.00;11.27;;;0.70;84.90;;;;;;5075895;28;20048;-79
2021/12/23 00:14:46;;;;;;;39.28;18.92;;;0.70;84.90;;;;;;5075494;28;20059;-79
2021/12/23 00:17:52;;;;;;;35.00;15.05;;;0.70;85.00;;;;;;5076201;28;20079;-79
2021/12/23 00:25:22;;;;;;;22.83;12.70;;;0.70;85.10;;;;;;5055026;28;20071;-79
2021/12/23 00:27:48;;;;;;;30.08;15.75;;;0.70;85.10;;;;;;5056529;28;20033;-79
2021/12/23 00:30:14;;;;;;;33.80;15.63;;;0.70;85.20;;;;;;5055070;28;20021;-79
2021/12/23 00:32:40;;;;;;;28.98;14.90;;;0.70;85.20;;;;;;5074036;28;20031;-80
2021/12/23 00:35:07;;;;;;;27.42;11.93;;;0.70;85.10;;;;;;5074027;28;20119;-79
2021/12/23 00:37:39;;;;;;;42.30;19.27;;;0.70;85.20;;;;;;5053349;28;20822;-80
2021/12/23 00:40:05;;;;;;;36.10;17.63;;;0.70;85.10;;;;;;5056515;28;20079;-77
2021/12/23 00:42:32;;;;;;;15.75;10.60;;;0.70;85.00;;;;;;5054769;28;20505;-79
2021/12/23 00:44:58;;;;;;;26.77;12.68;;;0.80;84.80;;;;;;5056004;28;20104;-79
2021/12/23 00:47:24;;;;;;;32.25;17.58;;;0.80;85.00;;;;;;5054679;28;20033;-79
2021/12/23 00:49:52;;;;;;;28.63;16.55;;;0.80;84.90;;;;;;5055784;28;20032;-79
2021/12/23 00:52:24;;;;;;;22.50;10.95;;;0.80;85.00;;;;;;5054820;28;20044;-79
2021/12/23 00:54:50;;;;;;;13.45;9.07;;;0.70;85.00;;;;;;5054976;28;20052;-79
2021/12/23 00:57:17;;;;;;;32.00;14.75;;;0.80;85.00;;;;;;5055722;28;20037;-77
2021/12/23 00:59:42;;;;;;;34.65;16.67;;;0.80;84.90;;;;;;5054892;28;20021;-79
2021/12/23 01:02:10;;;;;;;27.00;14.73;;;0.80;84.80;;;;;;5088887;28;20032;-79
2021/12/23 01:04:37;;;;;;;18.42;10.52;;;0.80;84.80;;;;;;5092447;28;20051;-79
2021/12/23 01:07:03;;;;;;;20.35;9.80;;;0.80;84.80;;;;;;5075617;28;20035;-79
2021/12/23 01:09:29;;;;;;;29.80;12.98;;;0.80;84.80;;;;;;5074785;28;20456;-79
2021/12/23 01:11:55;;;;;;;32.88;14.77;;;0.80;84.90;;;;;;5074739;28;20028;-77
2021/12/23 01:19:22;;;;;;;31.70;15.93;;;0.70;85.10;;;;;;5055674;28;20033;-79
2021/12/23 01:21:47;;;;;;;37.50;16.60;;;0.80;85.20;;;;;;5054863;28;20028;-79
2021/12/23 01:24:13;;;;;;;35.30;16.90;;;0.80;85.00;;;;;;5054289;28;20093;-79
2021/12/23 01:26:39;;;;;;;39.53;16.67;;;0.90;84.90;;;;;;5054656;28;20380;-79
2021/12/23 01:29:08;;;;;;;35.78;17.90;;;0.90;84.80;;;;;;5054749;28;20024;-79
2021/12/23 01:31:36;;;;;;;28.52;13.68;;;0.90;84.90;;;;;;5055796;28;20044;-79
2021/12/23 01:34:03;;;;;;;32.90;14.70;;;0.80;84.80;;;;;;5054469;28;20491;-79
2021/12/23 01:36:29;;;;;;;35.03;14.13;;;0.80;84.90;;;;;;5055125;28;20040;-79
2021/12/23 01:38:55;;;;;;;23.08;12.68;;;0.80;84.90;;;;;;5054453;28;20029;-79
2021/12/23 01:41:23;;;;;;;43.95;17.10;;;0.80;84.90;;;;;;5061367;28;20509;-78
2021/12/23 01:43:49;;;;;;;23.67;12.50;;;0.80;85.10;;;;;;5073118;28;20449;-79
2021/12/23 01:46:15;;;;;;;19.73;13.73;;;0.80;85.20;;;;;;5071440;28;20055;-79
2021/12/23 01:48:41;;;;;;;22.95;14.05;;;0.80;85.20;;;;;;5059466;28;20025;-77
2021/12/23 01:51:07;;;;;;;27.50;15.63;;;0.80;85.10;;;;;;5058115;28;20119;-77
2021/12/23 01:53:33;;;;;;;22.20;13.00;;;0.80;85.20;;;;;;5059162;28;20029;-78
2021/12/23 01:56:00;;;;;;;37.90;18.13;;;0.90;85.00;;;;;;5073118;28;20114;-79
2021/12/23 01:58:26;;;;;;;41.58;17.10;;;0.90;84.80;;;;;;5059271;28;20028;-78
2021/12/23 02:00:52;;;;;;;28.08;14.40;;;1.00;85.00;;;;;;5057931;28;20025;-79
2021/12/23 02:03:19;;;;;;;28.80;14.05;;;1.00;84.80;;;;;;5057936;28;20573;-80
2021/12/23 02:05:45;;;;;;;39.60;15.45;;;1.00;84.80;;;;;;5059324;28;20522;-80
2021/12/23 02:08:11;;;;;;;34.00;15.32;;;1.10;84.80;;;;;;5056722;28;20037;-77
2021/12/23 02:10:40;;;;;;;20.83;11.98;;;1.10;84.80;;;;;;5057702;28;20028;-77
2021/12/23 02:13:05;;;;;;;18.45;11.70;;;1.20;84.60;;;;;;5057668;28;20104;-79
2021/12/23 02:15:31;;;;;;;32.50;15.95;;;1.20;84.60;;;;;;5058856;28;20545;-78
2021/12/23 02:17:57;;;;;;;26.48;13.25;;;1.20;84.60;;;;;;5056311;28;20086;-79
2021/12/23 02:20:28;;;;;;;35.58;14.60;;;1.20;84.70;;;;;;5057806;28;20542;-79
2021/12/23 02:22:53;;;;;;;24.33;11.45;;;1.20;84.50;;;;;;5059132;28;20028;-79
2021/12/23 02:25:20;;;;;;;14.13;8.35;;;1.20;84.50;;;;;;5068357;28;20032;-79
2021/12/23 02:27:47;;;;;;;28.50;12.50;;;1.30;84.70;;;;;;5060377;28;20033;-79
2021/12/23 02:30:17;;;;;;;33.80;13.75;;;1.30;84.50;;;;;;5057685;28;20021;-79
2021/12/23 02:32:44;;;;;;;31.42;14.45;;;1.30;84.90;;;;;;5058678;28;20079;-79
2021/12/23 02:35:13;;;;;;;29.40;13.68;;;1.30;84.80;;;;;;5057538;28;20109;-79
2021/12/23 02:37:56;;;;;;;25.63;13.88;;;1.40;85.00;;;;;;5057445;28;20029;-79
2021/12/23 02:40:33;;;;;;;19.45;10.93;;;1.50;84.70;;;;;;5057826;28;20090;-78
2021/12/23 02:43:11;;;;;;;24.27;15.00;;;1.40;84.50;;;;;;5072708;28;20057;-79
2021/12/23 02:45:38;;;;;;;26.55;14.57;;;1.50;84.70;;;;;;5058086;28;20040;-79
2021/12/23 02:48:04;;;;;;;22.58;12.00;;;1.60;84.60;;;;;;5072741;28;20025;-79
2021/12/23 02:50:30;;;;;;;44.63;18.00;;;1.60;84.50;;;;;;5058593;28;20020;-79
2021/12/23 02:52:58;;;;;;;38.55;18.48;;;1.70;84.50;;;;;;5057143;28;20047;-79
2021/12/23 02:55:24;;;;;;;38.17;16.55;;;1.70;84.40;;;;;;5058520;28;20032;-79
2021/12/23 02:57:50;;;;;;;29.20;14.15;;;1.70;84.20;;;;;;5055410;28;20406;-80
2021/12/23 03:00:16;;;;;;;34.53;15.15;;;1.80;84.10;;;;;;5056926;28;20387;-79
2021/12/23 03:02:42;;;;;;;32.40;15.90;;;1.80;84.00;;;;;;5057823;28;20060;-79
2021/12/23 03:05:09;;;;;;;21.17;13.20;;;1.80;83.90;;;;;;5056794;28;20060;-79
2021/12/23 03:07:35;;;;;;;31.27;16.70;;;1.80;83.90;;;;;;5070897;28;20025;-77
2021/12/23 03:10:02;;;;;;;38.20;14.55;;;1.80;83.90;;;;;;5076599;28;20017;-79
2021/12/23 03:12:28;;;;;;;18.85;10.45;;;1.90;83.90;;;;;;5064105;28;20052;-79
2021/12/23 03:14:54;;;;;;;21.15;11.82;;;1.80;83.80;;;;;;5056556;28;20037;-79
2021/12/23 03:17:19;;;;;;;30.17;13.95;;;1.90;83.90;;;;;;5056493;28;20055;-79
2021/12/23 03:19:45;;;;;;;28.80;12.88;;;1.90;84.00;;;;;;5060072;28;20017;-79
2021/12/23 03:22:11;;;;;;;29.35;14.55;;;1.90;84.00;;;;;;5063692;28;20143;-79
2021/12/23 03:24:36;;;;;;;25.15;12.63;;;2.00;83.80;;;;;;5057589;28;20059;-79
2021/12/23 03:27:02;;;;;;;31.90;16.35;;;1.90;83.90;;;;;;5056292;28;20041;-80
2021/12/23 03:29:28;;;;;;;33.60;15.80;;;2.00;83.90;;;;;;5057528;28;20036;-79
2021/12/23 03:31:54;;;;;;;25.05;12.77;;;2.00;83.90;;;;;;5056022;28;20029;-80
2021/12/23 03:34:19;;;;;;;32.00;14.85;;;2.00;83.90;;;;;;5056222;28;20490;-78
2021/12/23 03:36:45;;;;;;;28.58;14.52;;;2.00;84.10;;;;;;5057891;28;20047;-77
2021/12/23 03:39:11;;;;;;;40.97;17.00;;;2.00;84.00;;;;;;5056308;28;20075;-77
2021/12/23 03:41:37;;;;;;;15.60;8.43;;;2.10;84.10;;;;;;5057207;28;20100;-77
2021/12/23 03:44:03;;;;;;;34.95;16.88;;;2.00;84.10;;;;;;5056139;28;20029;-79
2021/12/23 03:46:31;;;;;;;33.85;15.43;;;2.10;84.50;;;;;;5056958;28;20021;-79
2021/12/23 03:48:57;;;;;;;20.52;9.45;;;2.10;84.20;;;;;;5056194;28;20033;-80
2021/12/23 03:51:22;;;;;;;30.58;16.33;;;2.20;84.20;;;;;;5056020;28;20021;-79
2021/12/23 03:53:48;;;;;;;48.40;18.35;;;2.20;84.20;;;;;;5056050;28;20550;-78
2021/12/23 03:56:15;;;;;;;43.30;17.33;;;2.20;84.00;;;;;;5055693;28;20808;-79
2021/12/23 03:58:40;;;;;;;38.65;16.20;;;2.20;84.00;;;;;;5057219;28;20056;-78
2021/12/23 04:01:06;;;;;;;38.35;18.77;;;2.30;84.10;;;;;;5056055;28;20055;-79
2021/12/23 04:03:34;;;;;;;31.08;16.10;;;2.30;84.00;;;;;;5056138;28;20174;-79
2021/12/23 04:06:00;;;;;;;36.10;15.73;;;2.30;83.90;;;;;;5056000;28;20470;-80
2021/12/23 04:08:26;;;;;;;29.23;14.75;;;2.40;83.70;;;;;;5056904;28;20017;-79
2021/12/23 04:10:51;;;;;;;30.15;15.07;;;2.40;83.60;;;;;;5075749;28;20048;-79
2021/12/23 04:13:17;;;;;;;47.60;19.10;;;2.50;83.70;;;;;;5055787;28;20021;-79
2021/12/23 04:15:43;;;;;;;33.22;17.67;;;2.50;83.50;;;;;;5056718;28;20052;-77
2021/12/23 04:18:08;;;;;;;40.00;20.17;;;2.50;83.50;;;;;;5055579;28;20060;-78
2021/12/23 04:20:53;;;;;;;40.22;19.00;;;2.50;83.70;;;;;;5054707;28;20082;-77
2021/12/23 04:23:19;;;;;;;34.97;17.20;;;2.60;83.80;;;;;;5055398;28;20021;-78
2021/12/23 04:26:10;;;;;;;38.17;17.27;;;2.70;83.40;;;;;;5053668;28;20037;-78
2021/12/23 04:28:45;;;;;;;34.30;16.08;;;2.60;83.60;;;;;;5056083;28;20799;-78
2021/12/23 04:31:16;;;;;;;27.65;14.63;;;2.70;83.60;;;;;;5054094;28;20032;-78
2021/12/23 04:33:43;;;;;;;40.35;17.20;;;2.70;83.40;;;;;;5056779;28;20475;-80
2021/12/23 04:36:08;;;;;;;44.80;18.95;;;2.70;83.40;;;;;;5055130;28;20028;-79
2021/12/23 04:38:39;;;;;;;43.67;18.67;;;2.70;83.60;;;;;;5056220;28;20031;-77
2021/12/23 04:41:05;;;;;;;;;;;2.70;83.50;;;;;;5055376;28;20051;-77
2021/12/23 04:43:31;;;;;;;40.60;16.98;;;2.70;83.50;;;;;;5056253;28;19909;-78
2021/12/23 04:45:56;;;;;;;39.15;18.83;;;2.80;83.50;;;;;;5054946;28;20490;-77
2021/12/23 04:48:22;;;;;;;38.88;17.05;;;2.80;83.40;;;;;;5069116;28;20071;-78
2021/12/23 04:50:48;;;;;;;35.72;15.40;;;2.80;83.40;;;;;;5076626;28;20150;-78
2021/12/23 04:53:13;;;;;;;32.13;14.15;;;2.80;83.50;;;;;;5075043;28;20032;-77
2021/12/23 04:55:39;;;;;;;37.92;15.27;;;2.80;83.40;;;;;;5068569;28;20029;-79
2021/12/23 04:58:05;;;;;;;20.35;11.23;;;2.80;83.50;;;;;;5054788;28;20061;-78
2021/12/23 05:00:33;;;;;;;45.08;19.88;;;2.80;83.50;;;;;;5055779;28;20036;-80
2021/12/23 05:02:59;;;;;;;35.80;17.45;;;2.80;83.70;;;;;;5054653;28;20140;-80
2021/12/23 05:05:25;;;;;;;27.13;13.80;;;2.80;83.80;;;;;;5054873;28;20057;-79
2021/12/23 05:07:50;;;;;;;29.27;15.10;;;2.80;83.70;;;;;;5056517;28;20037;-80
2021/12/23 05:10:20;;;;;;;25.02;11.85;;;2.80;84.00;;;;;;5065392;28;20035;-80
2021/12/23 05:12:47;;;;;;;36.20;16.90;;;2.70;84.00;;;;;;5056106;28;20020;-79
2021/12/23 05:15:18;;;;;;;36.65;18.10;;;2.80;84.20;;;;;;5054704;28;20100;-79
2021/12/23 05:17:44;;;;;;;32.70;15.85;;;2.80;84.20;;;;;;5055584;28;20029;-79
2021/12/23 05:20:12;;;;;;;30.50;14.63;;;2.90;84.20;;;;;;5055926;28;20107;-79
2021/12/23 05:22:38;;;;;;;18.15;10.32;;;2.90;84.00;;;;;;5059035;28;20032;-79
2021/12/23 05:25:06;;;;;;;27.33;16.35;;;2.90;83.90;;;;;;5059751;28;20038;-79
2021/12/23 05:27:32;;;;;;;18.60;11.15;;;2.90;84.10;;;;;;5056970;28;20031;-80
2021/12/23 05:29:57;;;;;;;24.88;13.05;;;2.80;84.40;;;;;;5059817;28;20485;-79
2021/12/23 05:32:23;;;;;;;10.52;7.57;;;2.80;84.70;;;;;;5058346;28;20021;-80
2021/12/23 05:34:49;;;;;;;38.88;17.30;;;2.80;84.70;;;;;;5071478;28;20490;-79
2021/12/23 05:37:14;;;;;;;32.05;15.70;;;2.80;84.80;;;;;;5058562;28;20032;-79
2021/12/23 05:39:40;;;;;;;37.53;15.90;;;2.80;84.90;;;;;;5058481;28;20548;-79
2021/12/23 05:42:06;;;;;;;40.17;18.45;;;2.90;85.20;;;;;;5059779;28;20033;-77
2021/12/23 05:44:32;;;;;;;38.13;15.50;;;2.90;85.30;;;;;;5076924;28;20052;-77
2021/12/23 05:46:58;;;;;;;37.05;16.83;;;2.90;85.60;;;;;;5078817;28;20031;-78
2021/12/23 05:49:23;;;;;;;29.45;14.77;;;2.90;85.90;;;;;;5060618;28;20028;-82
2021/12/23 05:51:49;;;;;;;32.95;16.42;;;2.80;86.00;;;;;;5058883;28;20036;-78
2021/12/23 05:54:15;;;;;;;27.13;11.10;;;2.90;86.30;;;;;;5068000;28;20032;-78
2021/12/23 05:56:41;;;;;;;30.27;13.52;;;2.90;86.70;;;;;;5061581;28;20029;-76
2021/12/23 05:59:06;;;;;;;37.97;18.48;;;2.90;86.70;;;;;;5058152;28;20033;-78
2021/12/23 06:01:32;;;;;;;29.67;14.50;;;3.00;86.90;;;;;;5057999;28;20063;-79
2021/12/23 06:03:58;;;;;;;41.83;17.60;;;3.00;87.00;;;;;;5057724;28;20067;-77
2021/12/23 06:06:24;;;;;;;32.28;15.27;;;3.00;86.90;;;;;;5057883;28;20051;-74
2021/12/23 06:08:50;;;;;;;34.10;14.52;;;3.00;86.90;;;;;;5063167;28;20505;-77
2021/12/23 06:11:16;;;;;;;30.73;12.07;;;3.10;86.90;;;;;;5077618;28;20047;-76
2021/12/23 06:13:41;;;;;;;40.30;17.15;;;3.10;87.10;;;;;;5070804;28;20017;-77
2021/12/23 06:16:07;;;;;;;33.35;14.80;;;3.10;86.90;;;;;;5077977;28;20108;-77
2021/12/23 06:18:32;;;;;;;34.40;15.07;;;3.20;86.90;;;;;;5077747;28;20028;-76
2021/12/23 06:20:58;;;;;;;33.70;18.05;;;3.20;86.80;;;;;;5074325;28;20078;-78
2021/12/23 06:23:25;;;;;;;32.40;13.88;;;3.20;86.80;;;;;;5057913;28;20403;-78
2021/12/23 06:25:53;;;;;;;33.42;17.90;;;3.10;86.90;;;;;;5058118;28;20067;-77
2021/12/23 06:28:19;;;;;;;39.53;19.25;;;3.20;87.00;;;;;;5075123;28;20115;-78
2021/12/23 06:30:45;;;;;;;34.72;15.82;;;3.20;86.90;;;;;;5075372;28;20119;-78
2021/12/23 06:33:12;;;;;;;36.17;15.98;;;3.30;86.80;;;;;;5072937;28;20055;-77
2021/12/23 06:35:38;;;;;;;40.60;19.02;;;3.30;86.70;;;;;;5064429;28;20020;-78
2021/12/23 06:38:09;;;;;;;30.38;16.83;;;3.30;86.70;;;;;;5076078;28;20024;-78
2021/12/23 06:40:35;;;;;;;34.05;16.35;;;3.30;86.60;;;;;;5075703;28;20119;-78
2021/12/23 06:43:08;;;;;;;18.80;9.77;;;3.40;86.80;;;;;;5078085;28;20028;-77
2021/12/23 06:45:34;;;;;;;32.58;15.63;;;3.40;86.60;;;;;;5077076;28;20032;-77
2021/12/23 06:48:00;;;;;;;38.90;17.85;;;3.50;86.60;;;;;;5059761;28;20025;-78
2021/12/23 06:50:26;;;;;;;38.55;17.27;;;3.50;86.50;;;;;;5058122;28;20033;-78
2021/12/23 06:52:52;;;;;;;30.17;16.45;;;3.50;86.50;;;;;;5069031;28;20478;-79
2021/12/23 06:55:19;;;;;;;20.73;10.93;;;3.60;86.60;;;;;;5074363;28;20052;-83
2021/12/23 06:57:45;;;;;;;15.05;8.98;;;3.60;86.50;;;;;;5057032;28;20039;-83
2021/12/23 07:00:15;;;;;;;29.88;16.35;;;3.60;86.40;;;;;;5059192;28;20094;-84
2021/12/23 07:02:42;;;;;;;30.27;15.10;;;3.70;86.30;;;;;;5056841;28;20115;-83
2021/12/23 07:05:09;;;;;;;32.05;15.40;;;3.70;86.40;;;;;;5066355;28;20029;-86
2021/12/23 07:07:52;;;;;;;30.80;14.38;;;3.70;86.30;;;;;;5071453;28;20025;-84
2021/12/23 07:10:24;;;;;;;34.47;16.30;;;3.70;86.30;;;;;;5071211;28;20060;-83
2021/12/23 07:12:50;;;;;;;40.03;19.10;;;3.80;86.30;;;;;;5078210;28;20454;-84
2021/12/23 07:15:17;;;;;;;36.72;18.10;;;3.80;86.30;;;;;;5075274;28;20037;-84
2021/12/23 07:17:43;;;;;;;39.13;17.90;;;3.80;86.30;;;;;;5077644;28;20501;-84
2021/12/23 07:20:12;;;;;;;24.85;12.30;;;3.80;86.20;;;;;;5076117;28;20031;-85
2021/12/23 07:22:37;;;;;;;34.72;15.05;;;3.80;86.10;;;;;;5075186;28;20017;-83
2021/12/23 07:25:04;;;;;;;34.38;17.38;;;3.80;86.20;;;;;;5074913;28;20039;-84
2021/12/23 07:27:30;;;;;;;31.38;13.02;;;3.90;86.20;;;;;;5074780;28;20663;-84
2021/12/23 07:29:56;;;;;;;37.92;17.55;;;3.90;86.10;;;;;;5074553;28;20028;-83
2021/12/23 07:32:21;;;;;;;26.38;12.00;;;3.90;86.20;;;;;;5071579;28;20029;-84
2021/12/23 07:34:47;;;;;;;27.75;12.52;;;3.90;86.10;;;;;;5071060;28;20029;-84
2021/12/23 07:37:13;;;;;;;26.65;15.10;;;3.90;86.30;;;;;;5074989;28;20020;-84
2021/12/23 07:39:39;;;;;;;30.35;15.80;;;3.90;86.30;;;;;;5075029;28;20059;-84
2021/12/23 07:42:07;;;;;;;25.77;13.70;;;3.90;86.50;;;;;;5075459;28;20394;-84
2021/12/23 07:44:36;;;;;;;36.42;16.17;;;3.90;86.50;;;;;;5072080;28;20069;-85
2021/12/23 07:47:03;;;;;;;40.38;18.88;;;3.80;86.60;;;;;;5078120;28;20023;-84
2021/12/23 07:49:29;;;;;;;45.20;20.48;;;3.80;86.70;;;;;;5075328;28;20032;-84
2021/12/23 07:51:55;;;;;;;34.95;16.42;;;3.90;86.70;;;;;;5074128;28;20489;-84
2021/12/23 07:54:21;;;;;;;39.50;17.15;;;3.90;86.70;;;;;;5075570;28;20389;-84
2021/12/23 07:56:47;;;;;;;28.08;14.55;;;3.90;86.60;;;;;;5071043;28;20020;-85
2021/12/23 20:33:31;;;;;;;37.92;21.55;;;8.60;93.70;;;;;;5091213;27;20437;-78
2021/12/23 20:36:00;;;;;;;32.97;20.13;;;8.70;93.50;;;;;;5086436;28;20112;-81
2021/12/23 20:38:26;;;;;;;40.28;21.27;;;9.10;93.10;;;;;;5065408;28;20036;-80
2021/12/23 20:40:52;;;;;;;32.47;18.67;;;9.30;92.50;;;;;;5069769;28;20041;-82
2021/12/23 20:43:18;;;;;;;35.33;17.95;;;9.60;91.90;;;;;;5082966;28;20051;-82
2021/12/23 20:45:44;;;;;;;37.88;19.70;;;9.70;91.50;;;;;;5080221;28;20063;-82
2021/12/23 20:48:10;;;;;;;36.45;18.85;;;9.90;90.90;;;;;;5085252;28;20033;-81
2021/12/23 20:50:41;;;;;;;37.63;18.70;;;10.00;90.50;;;;;;5085147;28;20032;-82
2021/12/23 20:53:12;;;;;;;39.72;19.58;;;10.00;90.10;;;;;;5081276;28;20512;-81
2021/12/23 20:55:45;;;;;;;45.20;19.75;;;10.10;89.70;;;;;;5087766;28;20039;-83
2021/12/23 20:58:13;;;;;;;35.25;20.13;;;10.20;89.50;;;;;;5087490;28;20093;-85
2021/12/23 21:00:44;;;;;;;42.95;19.70;;;10.30;89.30;;;;;;5083642;28;20013;-83
2021/12/23 21:03:11;;;;;;;37.83;20.27;;;10.30;89.00;;;;;;5075526;28;20035;-83
2021/12/23 21:05:56;;;;;;;36.03;19.63;;;10.30;88.70;;;;;;5075536;28;20035;-83
2021/12/23 21:08:22;;;;;;;38.10;19.13;;;10.30;88.60;;;;;;5083960;28;20032;-84
2021/12/23 21:10:48;;;;;;;35.10;19.13;;;10.30;88.40;;;;;;5101145;28;20080;-84
2021/12/23 21:13:14;;;;;;;33.95;18.70;;;10.30;88.40;;;;;;5083115;28;20024;-84
2021/12/23 21:15:48;;;;;;;35.92;18.25;;;10.30;88.30;;;;;;5085507;28;20025;-85
2021/12/23 21:18:16;;;;;;;36.20;18.45;;;10.30;88.10;;;;;;5082786;28;20078;-85
2021/12/23 21:20:43;;;;;;;38.13;18.92;;;10.30;87.90;;;;;;5086808;28;20020;-85
2021/12/23 21:23:12;;;;;;;36.88;18.65;;;10.30;88.00;;;;;;5077835;28;20035;-86
2021/12/23 21:25:38;;;;;;;34.20;19.73;;;10.30;88.00;;;;;;5083577;28;20024;-84
2021/12/23 21:28:07;;;;;;;36.10;20.60;;;10.30;87.90;;;;;;5080536;28;20028;-85
2021/12/23 21:30:34;;;;;;;33.17;18.83;;;10.30;88.00;;;;;;5086490;28;20024;-85
2021/12/23 21:32:59;;;;;;;38.05;19.02;;;10.30;87.80;;;;;;5084203;28;20056;-86
2021/12/23 21:35:25;;;;;;;37.90;19.73;;;10.30;88.00;;;;;;5086372;28;20020;-84
2021/12/23 21:37:51;;;;;;;33.92;19.48;;;10.30;87.90;;;;;;5081599;28;20048;-85
2021/12/23 21:40:25;;;;;;;35.90;19.17;;;10.30;88.00;;;;;;5087992;28;20031;-84
2021/12/23 21:42:52;;;;;;;42.08;21.63;;;10.30;87.90;;;;;;5081997;28;20031;-85
2021/12/23 21:45:19;;;;;;;42.50;20.92;;;10.20;88.00;;;;;;5063940;28;20017;-85
2021/12/23 21:47:45;;;;;;;38.08;20.42;;;10.30;87.90;;;;;;5056472;28;20116;-83
2021/12/23 21:50:26;;;;;;;48.08;24.27;;;10.30;87.90;;;;;;5054958;28;20053;-88
2021/12/23 21:52:53;;;;;;;45.47;22.33;;;10.20;87.90;;;;;;5056767;28;20079;-83
2021/12/23 21:55:26;;;;;;;39.92;22.10;;;10.30;88.00;;;;;;5052992;28;20021;-80
2021/12/23 21:57:55;;;;;;;46.03;23.00;;;10.20;88.00;;;;;;5057249;28;20036;-80
2021/12/23 22:00:23;;;;;;;37.72;19.77;;;10.20;87.90;;;;;;5054981;28;20621;-81
2021/12/23 22:02:52;;;;;;;39.97;22.00;;;10.20;87.80;;;;;;5055182;28;20438;-80
2021/12/23 22:05:19;;;;;;;36.35;21.45;;;10.20;88.00;;;;;;5048784;28;20056;-80
2021/12/23 22:07:46;;;;;;;43.17;22.13;;;10.20;87.90;;;;;;5054087;28;20056;-80
2021/12/23 22:10:13;;;;;;;37.22;20.45;;;10.20;87.80;;;;;;5057569;28;20059;-80
2021/12/23 22:12:39;;;;;;;37.72;18.52;;;10.30;87.90;;;;;;5044446;28;20076;-79
2021/12/23 22:15:08;;;;;;;46.33;21.52;;;10.30;87.70;;;;;;5055723;28;20028;-80
2021/12/23 22:17:34;;;;;;;41.35;20.98;;;10.30;87.60;;;;;;5056573;28;20025;-80
2021/12/23 22:20:09;;;;;;;32.85;19.45;;;10.30;87.80;;;;;;5049727;28;20037;-79
2021/12/23 22:22:36;;;;;;;39.88;18.88;;;10.30;87.60;;;;;;5045071;28;20060;-80
2021/12/23 22:25:04;;;;;;;37.20;19.80;;;10.30;87.70;;;;;;5054967;28;20079;-80
2021/12/23 22:27:29;;;;;;;37.90;20.90;;;10.30;87.80;;;;;;5051585;28;20070;-80
2021/12/23 22:29:55;;;;;;;43.72;20.00;;;10.30;87.70;;;;;;5036448;28;20104;-79
2021/12/23 22:32:22;;;;;;;33.28;18.77;;;10.20;87.80;;;;;;5056172;28;20041;-80
2021/12/23 22:34:48;;;;;;;39.10;18.55;;;10.20;87.80;;;;;;5053807;28;20032;-80
2021/12/23 22:37:17;;;;;;;34.42;18.73;;;10.30;87.90;;;;;;5056358;28;20040;-80
2021/12/23 22:39:44;;;;;;;41.30;19.88;;;10.30;87.90;;;;;;5051893;28;20088;-80
2021/12/23 22:42:10;;;;;;;35.60;19.83;;;10.30;87.90;;;;;;5036177;28;20029;-80
2021/12/23 22:44:36;;;;;;;32.97;18.08;;;10.30;88.00;;;;;;5055576;28;20032;-80
2021/12/23 22:47:03;;;;;;;41.60;20.60;;;10.30;88.10;;;;;;5054538;28;20028;-80
2021/12/23 22:49:29;;;;;;;45.10;21.38;;;10.30;88.10;;;;;;5055502;28;20516;-81
2021/12/23 22:51:55;;;;;;;39.50;20.58;;;10.30;88.30;;;;;;5055473;28;20028;-80
2021/12/23 22:54:21;;;;;;;41.13;20.05;;;10.30;88.40;;;;;;5056885;28;20102;-80
2021/12/23 22:56:46;;;;;;;36.22;17.05;;;10.20;88.40;;;;;;5054908;28;20164;-80
2021/12/23 22:59:12;;;;;;;38.95;18.13;;;10.30;88.70;;;;;;5054366;28;20025;-80
2021/12/23 23:01:38;;;;;;;40.45;19.52;;;10.20;88.80;;;;;;5056555;28;20033;-80
2021/12/23 23:04:03;;;;;;;36.72;18.30;;;10.30;89.10;;;;;;5055475;28;20021;-80
2021/12/23 23:06:30;;;;;;;35.75;18.30;;;10.20;89.10;;;;;;5055345;28;20053;-80
2021/12/23 23:08:56;;;;;;;34.88;16.63;;;10.30;89.10;;;;;;5055045;28;20037;-80
2021/12/23 23:11:27;;;;;;;36.22;18.13;;;10.30;88.70;;;;;;5056512;28;20021;-80
2021/12/23 23:13:58;;;;;;;41.17;17.42;;;10.30;89.00;;;;;;5052526;28;20380;-80
2021/12/23 23:16:47;;;;;;;41.30;18.15;;;10.30;89.00;;;;;;5055312;28;20096;-80
2021/12/23 23:19:14;;;;;;;44.73;19.93;;;10.30;89.20;;;;;;5050229;28;20032;-80
2021/12/23 23:21:41;;;;;;;39.83;18.67;;;10.30;89.30;;;;;;5053960;28;20025;-80
2021/12/23 23:24:21;;;;;;;45.30;20.27;;;10.30;89.10;;;;;;5052859;28;20486;-80
2021/12/23 23:27:14;;;;;;;50.40;19.48;;;10.30;89.20;;;;;;5055429;28;20021;-80
2021/12/23 23:35:25;;;;;;;38.13;19.38;;;10.30;89.30;;;;;;5037564;28;20044;-80
2021/12/23 23:40:32;;;;;;;53.40;20.02;;;10.30;89.50;;;;;;5037587;28;20049;-80
2021/12/23 23:43:00;;;;;;;45.95;21.17;;;10.30;89.50;;;;;;5037513;28;20040;-80
2021/12/23 23:45:43;;;;;;;43.50;20.20;;;10.30;89.40;;;;;;5043323;28;20025;-79
2021/12/23 23:48:10;;;;;;;34.90;17.00;;;10.30;89.50;;;;;;5033935;28;20030;-80
2021/12/23 23:50:59;;;;;;;51.08;21.27;;;10.20;89.60;;;;;;5035502;28;20026;-80
2021/12/23 23:53:27;;;;;;;50.42;21.13;;;10.20;89.80;;;;;;5036069;28;20033;-80
2021/12/23 23:56:02;;;;;;;52.47;21.90;;;10.30;89.80;;;;;;5035241;28;20479;-80
2021/12/23 23:58:31;;;;;;;47.42;20.35;;;10.20;89.70;;;;;;5036836;28;20044;-80
